This is the latest recevied weather packets stored in our database for station/object KJ4EBE. If no packets are shown the sender has not sent any weather packets the latest 1 day(s).
| Time | Temp. | Humidity | Pressure | Rain* | Wind** | Luminosity | Snow |
|---|---|---|---|---|---|---|---|
| 1836274559 | 26.67° C | 58% | 1016.1 hPa | 0 mm | 0 m/s | 0 W/m² | - |
| 1836274413 | 26.67° C | 57% | 1016.2 hPa | 0 mm | 0.89 m/s, 101° | 0 W/m² | - |
| 1836274258 | 27.22° C | 58% | 1016 hPa | 0 mm | 0 m/s | 0 W/m² | - |
| 1836274111 | 26.67° C | 58% | 1016.2 hPa | 0 mm | 0 m/s | 0 W/m² | - |
| 1836273957 | 27.22° C | 57% | 1015.8 hPa | 0 mm | 0 m/s | 0 W/m² | - |
| 1778043747 | 23.33° C | 93% | 1007.4 hPa | 0 mm | 0 m/s | 0 W/m² | - |
| 1778043443 | 23.33° C | 93% | 1007.4 hPa | 0 mm | 0.89 m/s, 183° | 0 W/m² | - |
| 1778043140 | 23.33° C | 92% | 1007.3 hPa | 0 mm | 0.45 m/s, 121° | 0 W/m² | - |
| 1778042838 | 23.89° C | 92% | 1007.5 hPa | 0 mm | 0 m/s | 0 W/m² | - |
| 1778042535 | 23.89° C | 92% | 1007.5 hPa | 0 mm | 0.45 m/s, 206° | 0 W/m² | - |
| 1778042232 | 23.89° C | 91% | 1007.4 hPa | 0 mm | 0.89 m/s, 344° | 0 W/m² | - |
| 1778041930 | 23.89° C | 91% | 1007.3 hPa | 0 mm | 0.89 m/s, 216° | 0 W/m² | - |
| 1778041628 | 23.89° C | 91% | 1007.2 hPa | 0 mm | 0 m/s | 0 W/m² | - |
| 1778041326 | 23.89° C | 91% | 1007.2 hPa | 0 mm | 0 m/s | 0 W/m² | - |
| 1778041025 | 23.89° C | 91% | 1007.2 hPa | 0 mm | 0 m/s | 0 W/m² | - |
| 1778040721 | 23.89° C | 90% | 1007.4 hPa | 0 mm | 0 m/s | 0 W/m² | - |
| 1778040418 | 23.89° C | 90% | 1007.4 hPa | 0 mm | 0 m/s | 0 W/m² | - |
| 1778040115 | 23.89° C | 90% | 1007.2 hPa | 0 mm | 0 m/s | 0 W/m² | - |
| 1778039812 | 23.89° C | 90% | 1007.2 hPa | 0 mm | 0 m/s | 0 W/m² | - |
| 1778039509 | 23.89° C | 89% | 1007.5 hPa | 0 mm | 0 m/s | 0 W/m² | - |
| 1778039206 | 23.89° C | 89% | 1007.4 hPa | 0 mm | 0 m/s | 0 W/m² | - |
| 1778038903 | 23.89° C | 89% | 1007 hPa | 0 mm | 0 m/s | 0 W/m² | - |
| 1778038600 | 23.89° C | 89% | 1007.1 hPa | 0 mm | 0 m/s | 0 W/m² | - |
| 1778038297 | 24.44° C | 88% | 1007 hPa | 0 mm | 0 m/s | 0 W/m² | - |
| 1778037994 | 24.44° C | 88% | 1007.1 hPa | 0 mm | 0 m/s | 0 W/m² | - |
* Rain latest hour (hover to see other rain measurements)
** Current wind speed in m/s (hover to see current wind gust speed)